sensor_id;sensor_type;location;lat;lon;timestamp;P1;durP1;ratioP1;P2;durP2;ratioP2
15063;SDS011;7631;52.088;5.088;2022-08-23T00:01:29;2.30;;;1.63;;
15063;SDS011;7631;52.088;5.088;2022-08-23T00:03:55;2.17;;;1.98;;
15063;SDS011;7631;52.088;5.088;2022-08-23T00:06:21;2.00;;;1.83;;
15063;SDS011;7631;52.088;5.088;2022-08-23T00:08:47;2.13;;;1.92;;
15063;SDS011;7631;52.088;5.088;2022-08-23T00:13:56;2.00;;;1.67;;
15063;SDS011;7631;52.088;5.088;2022-08-23T00:16:22;4.03;;;2.17;;
15063;SDS011;7631;52.088;5.088;2022-08-23T00:18:47;2.10;;;1.60;;
15063;SDS011;7631;52.088;5.088;2022-08-23T00:21:12;2.60;;;1.98;;
15063;SDS011;7631;52.088;5.088;2022-08-23T00:23:38;1.98;;;1.75;;
15063;SDS011;7631;52.088;5.088;2022-08-23T00:26:03;2.42;;;1.88;;
15063;SDS011;7631;52.088;5.088;2022-08-23T00:28:28;2.30;;;2.10;;
15063;SDS011;7631;52.088;5.088;2022-08-23T00:30:55;2.17;;;1.90;;
15063;SDS011;7631;52.088;5.088;2022-08-23T00:33:21;2.15;;;1.80;;
15063;SDS011;7631;52.088;5.088;2022-08-23T00:35:47;3.22;;;1.73;;
15063;SDS011;7631;52.088;5.088;2022-08-23T00:38:12;1.70;;;1.60;;
15063;SDS011;7631;52.088;5.088;2022-08-23T00:40:37;1.83;;;1.73;;
15063;SDS011;7631;52.088;5.088;2022-08-23T00:43:06;2.00;;;1.85;;
15063;SDS011;7631;52.088;5.088;2022-08-23T00:45:53;2.70;;;1.90;;
15063;SDS011;7631;52.088;5.088;2022-08-23T00:48:41;2.50;;;1.85;;
15063;SDS011;7631;52.088;5.088;2022-08-23T00:51:11;2.25;;;1.83;;
15063;SDS011;7631;52.088;5.088;2022-08-23T00:53:39;1.85;;;1.70;;
15063;SDS011;7631;52.088;5.088;2022-08-23T00:56:07;1.67;;;1.58;;
15063;SDS011;7631;52.088;5.088;2022-08-23T00:58:33;2.20;;;2.00;;
15063;SDS011;7631;52.088;5.088;2022-08-23T01:01:00;1.83;;;1.73;;
15063;SDS011;7631;52.088;5.088;2022-08-23T01:03:27;1.70;;;1.60;;
15063;SDS011;7631;52.088;5.088;2022-08-23T01:06:06;2.22;;;1.73;;
15063;SDS011;7631;52.088;5.088;2022-08-23T01:08:34;2.30;;;1.75;;
15063;SDS011;7631;52.088;5.088;2022-08-23T01:11:12;2.08;;;1.88;;
15063;SDS011;7631;52.088;5.088;2022-08-23T01:13:39;2.53;;;1.85;;
15063;SDS011;7631;52.088;5.088;2022-08-23T01:16:10;2.55;;;1.75;;
15063;SDS011;7631;52.088;5.088;2022-08-23T01:18:38;2.10;;;1.83;;
15063;SDS011;7631;52.088;5.088;2022-08-23T01:23:36;2.00;;;1.80;;
15063;SDS011;7631;52.088;5.088;2022-08-23T01:26:04;2.03;;;1.83;;
15063;SDS011;7631;52.088;5.088;2022-08-23T01:28:30;1.77;;;1.67;;
15063;SDS011;7631;52.088;5.088;2022-08-23T01:30:55;2.15;;;1.80;;
15063;SDS011;7631;52.088;5.088;2022-08-23T01:33:21;1.70;;;1.60;;
15063;SDS011;7631;52.088;5.088;2022-08-23T01:35:47;2.03;;;1.67;;
15063;SDS011;7631;52.088;5.088;2022-08-23T01:38:13;2.05;;;1.90;;
15063;SDS011;7631;52.088;5.088;2022-08-23T01:40:38;2.00;;;1.80;;
15063;SDS011;7631;52.088;5.088;2022-08-23T01:43:04;1.92;;;1.63;;
15063;SDS011;7631;52.088;5.088;2022-08-23T01:45:30;2.22;;;1.70;;
15063;SDS011;7631;52.088;5.088;2022-08-23T01:47:56;2.33;;;1.85;;
15063;SDS011;7631;52.088;5.088;2022-08-23T01:50:22;2.05;;;1.85;;
15063;SDS011;7631;52.088;5.088;2022-08-23T01:52:47;1.77;;;1.65;;
15063;SDS011;7631;52.088;5.088;2022-08-23T01:55:12;2.10;;;1.80;;
15063;SDS011;7631;52.088;5.088;2022-08-23T01:57:38;2.10;;;1.90;;
15063;SDS011;7631;52.088;5.088;2022-08-23T02:00:04;2.03;;;1.58;;
15063;SDS011;7631;52.088;5.088;2022-08-23T02:02:30;1.73;;;1.60;;
15063;SDS011;7631;52.088;5.088;2022-08-23T02:04:55;2.33;;;1.75;;
15063;SDS011;7631;52.088;5.088;2022-08-23T02:07:24;1.77;;;1.67;;
15063;SDS011;7631;52.088;5.088;2022-08-23T02:09:49;1.55;;;1.40;;
15063;SDS011;7631;52.088;5.088;2022-08-23T02:12:14;2.10;;;1.80;;
15063;SDS011;7631;52.088;5.088;2022-08-23T02:14:39;1.90;;;1.58;;
15063;SDS011;7631;52.088;5.088;2022-08-23T02:17:06;1.73;;;1.63;;
15063;SDS011;7631;52.088;5.088;2022-08-23T02:19:32;2.85;;;1.92;;
15063;SDS011;7631;52.088;5.088;2022-08-23T02:21:57;1.92;;;1.73;;
15063;SDS011;7631;52.088;5.088;2022-08-23T02:24:23;1.80;;;1.70;;
15063;SDS011;7631;52.088;5.088;2022-08-23T02:26:50;2.13;;;1.63;;
15063;SDS011;7631;52.088;5.088;2022-08-23T02:29:16;1.83;;;1.65;;
15063;SDS011;7631;52.088;5.088;2022-08-23T02:31:42;2.10;;;1.90;;
15063;SDS011;7631;52.088;5.088;2022-08-23T02:34:08;1.95;;;1.75;;
15063;SDS011;7631;52.088;5.088;2022-08-23T02:36:35;2.95;;;1.70;;
15063;SDS011;7631;52.088;5.088;2022-08-23T02:39:02;1.65;;;1.55;;
15063;SDS011;7631;52.088;5.088;2022-08-23T02:41:28;2.05;;;1.63;;
15063;SDS011;7631;52.088;5.088;2022-08-23T02:43:54;2.22;;;1.60;;
15063;SDS011;7631;52.088;5.088;2022-08-23T02:46:19;1.75;;;1.65;;
15063;SDS011;7631;52.088;5.088;2022-08-23T02:48:45;2.38;;;1.90;;
15063;SDS011;7631;52.088;5.088;2022-08-23T02:51:10;2.22;;;1.90;;
15063;SDS011;7631;52.088;5.088;2022-08-23T02:53:35;2.15;;;1.95;;
15063;SDS011;7631;52.088;5.088;2022-08-23T02:56:01;2.33;;;1.80;;
15063;SDS011;7631;52.088;5.088;2022-08-23T02:58:26;1.85;;;1.75;;
15063;SDS011;7631;52.088;5.088;2022-08-23T03:00:52;2.88;;;1.80;;
15063;SDS011;7631;52.088;5.088;2022-08-23T03:03:17;2.05;;;1.90;;
15063;SDS011;7631;52.088;5.088;2022-08-23T03:05:43;2.17;;;1.98;;
15063;SDS011;7631;52.088;5.088;2022-08-23T03:08:09;2.47;;;1.77;;
15063;SDS011;7631;52.088;5.088;2022-08-23T03:10:35;2.03;;;1.60;;
15063;SDS011;7631;52.088;5.088;2022-08-23T03:13:00;1.95;;;1.75;;
15063;SDS011;7631;52.088;5.088;2022-08-23T03:15:26;1.88;;;1.77;;
15063;SDS011;7631;52.088;5.088;2022-08-23T03:17:51;2.63;;;1.90;;
15063;SDS011;7631;52.088;5.088;2022-08-23T03:20:16;1.92;;;1.70;;
15063;SDS011;7631;52.088;5.088;2022-08-23T03:22:42;1.75;;;1.50;;
15063;SDS011;7631;52.088;5.088;2022-08-23T03:25:07;1.98;;;1.77;;
15063;SDS011;7631;52.088;5.088;2022-08-23T03:27:33;1.92;;;1.77;;
15063;SDS011;7631;52.088;5.088;2022-08-23T03:29:58;1.80;;;1.70;;
15063;SDS011;7631;52.088;5.088;2022-08-23T03:32:23;1.80;;;1.70;;
15063;SDS011;7631;52.088;5.088;2022-08-23T03:34:49;1.92;;;1.65;;
15063;SDS011;7631;52.088;5.088;2022-08-23T03:37:14;2.13;;;1.70;;
15063;SDS011;7631;52.088;5.088;2022-08-23T03:39:40;2.25;;;1.90;;
15063;SDS011;7631;52.088;5.088;2022-08-23T03:42:05;2.10;;;1.83;;
15063;SDS011;7631;52.088;5.088;2022-08-23T03:44:31;1.92;;;1.70;;
15063;SDS011;7631;52.088;5.088;2022-08-23T03:46:57;1.67;;;1.55;;
15063;SDS011;7631;52.088;5.088;2022-08-23T03:49:22;1.90;;;1.80;;
15063;SDS011;7631;52.088;5.088;2022-08-23T03:51:47;1.73;;;1.35;;
15063;SDS011;7631;52.088;5.088;2022-08-23T03:54:12;1.65;;;1.50;;
15063;SDS011;7631;52.088;5.088;2022-08-23T03:56:38;2.28;;;1.92;;
15063;SDS011;7631;52.088;5.088;2022-08-23T03:59:13;2.17;;;1.60;;
15063;SDS011;7631;52.088;5.088;2022-08-23T04:01:38;2.00;;;1.80;;
15063;SDS011;7631;52.088;5.088;2022-08-23T04:04:03;1.67;;;1.50;;
15063;SDS011;7631;52.088;5.088;2022-08-23T04:06:29;2.00;;;1.80;;
15063;SDS011;7631;52.088;5.088;2022-08-23T04:08:55;2.03;;;1.90;;
15063;SDS011;7631;52.088;5.088;2022-08-23T04:11:21;1.95;;;1.80;;
15063;SDS011;7631;52.088;5.088;2022-08-23T04:13:47;1.95;;;1.80;;
15063;SDS011;7631;52.088;5.088;2022-08-23T04:16:12;1.88;;;1.70;;
15063;SDS011;7631;52.088;5.088;2022-08-23T04:18:38;1.60;;;1.50;;
15063;SDS011;7631;52.088;5.088;2022-08-23T04:21:05;2.03;;;1.83;;
15063;SDS011;7631;52.088;5.088;2022-08-23T04:23:31;2.33;;;1.98;;
15063;SDS011;7631;52.088;5.088;2022-08-23T04:25:57;1.80;;;1.65;;
15063;SDS011;7631;52.088;5.088;2022-08-23T04:28:22;1.90;;;1.58;;
15063;SDS011;7631;52.088;5.088;2022-08-23T04:30:48;1.80;;;1.70;;
15063;SDS011;7631;52.088;5.088;2022-08-23T04:33:13;2.00;;;1.67;;
15063;SDS011;7631;52.088;5.088;2022-08-23T04:35:38;1.83;;;1.63;;
15063;SDS011;7631;52.088;5.088;2022-08-23T04:38:05;2.03;;;1.70;;
15063;SDS011;7631;52.088;5.088;2022-08-23T04:40:31;2.00;;;1.77;;
15063;SDS011;7631;52.088;5.088;2022-08-23T04:43:15;1.45;;;1.35;;
15063;SDS011;7631;52.088;5.088;2022-08-23T04:45:40;2.03;;;1.70;;
15063;SDS011;7631;52.088;5.088;2022-08-23T04:48:06;1.90;;;1.80;;
15063;SDS011;7631;52.088;5.088;2022-08-23T04:50:32;2.08;;;1.70;;
15063;SDS011;7631;52.088;5.088;2022-08-23T04:52:58;1.65;;;1.55;;
15063;SDS011;7631;52.088;5.088;2022-08-23T04:55:23;1.98;;;1.88;;
15063;SDS011;7631;52.088;5.088;2022-08-23T04:57:48;1.50;;;1.40;;
15063;SDS011;7631;52.088;5.088;2022-08-23T05:00:14;1.63;;;1.48;;
15063;SDS011;7631;52.088;5.088;2022-08-23T05:02:40;2.20;;;1.95;;
15063;SDS011;7631;52.088;5.088;2022-08-23T05:05:06;1.95;;;1.60;;
15063;SDS011;7631;52.088;5.088;2022-08-23T05:07:32;1.55;;;1.45;;
15063;SDS011;7631;52.088;5.088;2022-08-23T05:09:57;1.70;;;1.60;;
15063;SDS011;7631;52.088;5.088;2022-08-23T05:12:22;1.85;;;1.63;;
15063;SDS011;7631;52.088;5.088;2022-08-23T05:14:47;1.60;;;1.50;;
15063;SDS011;7631;52.088;5.088;2022-08-23T05:17:13;1.73;;;1.63;;
15063;SDS011;7631;52.088;5.088;2022-08-23T05:19:38;1.98;;;1.63;;
15063;SDS011;7631;52.088;5.088;2022-08-23T05:22:03;2.33;;;1.90;;
15063;SDS011;7631;52.088;5.088;2022-08-23T05:24:28;1.77;;;1.60;;
15063;SDS011;7631;52.088;5.088;2022-08-23T05:26:54;1.85;;;1.70;;
15063;SDS011;7631;52.088;5.088;2022-08-23T05:29:19;1.60;;;1.50;;
15063;SDS011;7631;52.088;5.088;2022-08-23T05:31:45;1.80;;;1.50;;
15063;SDS011;7631;52.088;5.088;2022-08-23T05:34:10;1.88;;;1.73;;
15063;SDS011;7631;52.088;5.088;2022-08-23T05:36:36;1.80;;;1.70;;
15063;SDS011;7631;52.088;5.088;2022-08-23T05:39:01;2.28;;;1.50;;
15063;SDS011;7631;52.088;5.088;2022-08-23T05:41:26;2.28;;;1.60;;
15063;SDS011;7631;52.088;5.088;2022-08-23T05:43:52;2.35;;;1.65;;
15063;SDS011;7631;52.088;5.088;2022-08-23T05:46:18;1.77;;;1.67;;
15063;SDS011;7631;52.088;5.088;2022-08-23T05:48:44;1.92;;;1.73;;
15063;SDS011;7631;52.088;5.088;2022-08-23T05:51:25;1.58;;;1.48;;
15063;SDS011;7631;52.088;5.088;2022-08-23T05:53:51;2.00;;;1.80;;
15063;SDS011;7631;52.088;5.088;2022-08-23T05:56:38;1.80;;;1.70;;
15063;SDS011;7631;52.088;5.088;2022-08-23T05:59:04;1.90;;;1.80;;
15063;SDS011;7631;52.088;5.088;2022-08-23T06:01:30;2.65;;;2.15;;
15063;SDS011;7631;52.088;5.088;2022-08-23T06:03:59;2.53;;;2.33;;
15063;SDS011;7631;52.088;5.088;2022-08-23T06:06:25;2.38;;;2.17;;
15063;SDS011;7631;52.088;5.088;2022-08-23T06:08:50;2.03;;;1.92;;
15063;SDS011;7631;52.088;5.088;2022-08-23T06:11:20;2.47;;;2.10;;
15063;SDS011;7631;52.088;5.088;2022-08-23T06:13:50;2.00;;;1.80;;
15063;SDS011;7631;52.088;5.088;2022-08-23T06:16:16;2.70;;;2.30;;
15063;SDS011;7631;52.088;5.088;2022-08-23T06:18:42;2.17;;;1.83;;
15063;SDS011;7631;52.088;5.088;2022-08-23T06:21:09;2.20;;;1.70;;
15063;SDS011;7631;52.088;5.088;2022-08-23T06:23:35;2.17;;;1.98;;
15063;SDS011;7631;52.088;5.088;2022-08-23T06:26:00;1.80;;;1.70;;
15063;SDS011;7631;52.088;5.088;2022-08-23T06:28:29;1.83;;;1.73;;
15063;SDS011;7631;52.088;5.088;2022-08-23T06:30:57;1.85;;;1.65;;
15063;SDS011;7631;52.088;5.088;2022-08-23T06:33:22;1.70;;;1.60;;
15063;SDS011;7631;52.088;5.088;2022-08-23T06:35:48;2.15;;;1.80;;
15063;SDS011;7631;52.088;5.088;2022-08-23T06:38:14;2.10;;;1.80;;
15063;SDS011;7631;52.088;5.088;2022-08-23T06:40:40;1.85;;;1.75;;
15063;SDS011;7631;52.088;5.088;2022-08-23T06:43:05;2.33;;;1.75;;
15063;SDS011;7631;52.088;5.088;2022-08-23T06:45:30;2.17;;;1.98;;
15063;SDS011;7631;52.088;5.088;2022-08-23T06:47:56;1.77;;;1.67;;
15063;SDS011;7631;52.088;5.088;2022-08-23T06:50:21;2.42;;;1.92;;
15063;SDS011;7631;52.088;5.088;2022-08-23T06:52:47;2.80;;;2.20;;
15063;SDS011;7631;52.088;5.088;2022-08-23T06:55:13;2.10;;;1.90;;
15063;SDS011;7631;52.088;5.088;2022-08-23T06:57:38;1.85;;;1.75;;
15063;SDS011;7631;52.088;5.088;2022-08-23T07:00:04;2.63;;;2.05;;
15063;SDS011;7631;52.088;5.088;2022-08-23T07:02:29;2.30;;;2.00;;
15063;SDS011;7631;52.088;5.088;2022-08-23T07:04:55;2.95;;;1.85;;
15063;SDS011;7631;52.088;5.088;2022-08-23T07:07:20;2.10;;;1.90;;
15063;SDS011;7631;52.088;5.088;2022-08-23T07:09:45;2.53;;;1.90;;
15063;SDS011;7631;52.088;5.088;2022-08-23T07:12:10;1.83;;;1.73;;
15063;SDS011;7631;52.088;5.088;2022-08-23T07:14:36;2.17;;;1.70;;
15063;SDS011;7631;52.088;5.088;2022-08-23T07:17:01;1.75;;;1.55;;
15063;SDS011;7631;52.088;5.088;2022-08-23T07:19:29;2.47;;;1.70;;
15063;SDS011;7631;52.088;5.088;2022-08-23T07:21:55;2.20;;;2.00;;
15063;SDS011;7631;52.088;5.088;2022-08-23T07:24:20;2.80;;;1.80;;
15063;SDS011;7631;52.088;5.088;2022-08-23T07:26:46;2.08;;;1.88;;
15063;SDS011;7631;52.088;5.088;2022-08-23T07:29:12;1.88;;;1.70;;
15063;SDS011;7631;52.088;5.088;2022-08-23T07:31:59;3.05;;;2.10;;
15063;SDS011;7631;52.088;5.088;2022-08-23T07:34:24;2.25;;;2.05;;
15063;SDS011;7631;52.088;5.088;2022-08-23T07:36:50;2.55;;;2.35;;
15063;SDS011;7631;52.088;5.088;2022-08-23T07:39:16;2.63;;;2.28;;
15063;SDS011;7631;52.088;5.088;2022-08-23T07:41:42;2.25;;;1.98;;
15063;SDS011;7631;52.088;5.088;2022-08-23T07:44:08;1.88;;;1.60;;
15063;SDS011;7631;52.088;5.088;2022-08-23T07:46:34;2.22;;;1.98;;
15063;SDS011;7631;52.088;5.088;2022-08-23T07:49:00;2.90;;;2.35;;
15063;SDS011;7631;52.088;5.088;2022-08-23T07:51:25;2.88;;;1.88;;
15063;SDS011;7631;52.088;5.088;2022-08-23T07:53:51;3.42;;;2.08;;
15063;SDS011;7631;52.088;5.088;2022-08-23T07:56:17;2.60;;;2.30;;
15063;SDS011;7631;52.088;5.088;2022-08-23T07:58:43;2.20;;;2.00;;
15063;SDS011;7631;52.088;5.088;2022-08-23T08:01:09;2.30;;;2.10;;
15063;SDS011;7631;52.088;5.088;2022-08-23T08:03:36;2.45;;;2.03;;
15063;SDS011;7631;52.088;5.088;2022-08-23T08:06:05;3.33;;;2.22;;
15063;SDS011;7631;52.088;5.088;2022-08-23T08:08:30;2.63;;;2.30;;
15063;SDS011;7631;52.088;5.088;2022-08-23T08:10:55;3.40;;;2.55;;
15063;SDS011;7631;52.088;5.088;2022-08-23T08:13:20;3.55;;;2.65;;
15063;SDS011;7631;52.088;5.088;2022-08-23T08:15:46;3.58;;;2.45;;
15063;SDS011;7631;52.088;5.088;2022-08-23T08:18:11;2.80;;;1.90;;
15063;SDS011;7631;52.088;5.088;2022-08-23T08:20:36;3.25;;;2.00;;
15063;SDS011;7631;52.088;5.088;2022-08-23T08:23:07;2.53;;;2.10;;
15063;SDS011;7631;52.088;5.088;2022-08-23T08:25:32;3.13;;;2.00;;
15063;SDS011;7631;52.088;5.088;2022-08-23T08:27:58;3.63;;;2.38;;
15063;SDS011;7631;52.088;5.088;2022-08-23T08:30:23;3.95;;;2.70;;
15063;SDS011;7631;52.088;5.088;2022-08-23T08:32:49;2.67;;;2.40;;
15063;SDS011;7631;52.088;5.088;2022-08-23T08:35:14;2.65;;;2.42;;
15063;SDS011;7631;52.088;5.088;2022-08-23T08:37:39;3.83;;;2.75;;
15063;SDS011;7631;52.088;5.088;2022-08-23T08:40:05;2.50;;;2.30;;
15063;SDS011;7631;52.088;5.088;2022-08-23T08:48:03;3.40;;;2.08;;
15063;SDS011;7631;52.088;5.088;2022-08-23T08:53:34;4.05;;;2.50;;
15063;SDS011;7631;52.088;5.088;2022-08-23T08:56:03;3.10;;;2.80;;
15063;SDS011;7631;52.088;5.088;2022-08-23T09:00:56;4.05;;;2.38;;
15063;SDS011;7631;52.088;5.088;2022-08-23T09:03:31;2.55;;;1.80;;
15063;SDS011;7631;52.088;5.088;2022-08-23T09:06:02;2.88;;;2.10;;
15063;SDS011;7631;52.088;5.088;2022-08-23T09:11:39;2.75;;;2.20;;
15063;SDS011;7631;52.088;5.088;2022-08-23T09:14:05;2.75;;;2.20;;
15063;SDS011;7631;52.088;5.088;2022-08-23T09:18:58;2.40;;;1.93;;
15063;SDS011;7631;52.088;5.088;2022-08-23T09:21:25;2.83;;;2.05;;
15063;SDS011;7631;52.088;5.088;2022-08-23T09:23:50;2.83;;;2.17;;
15063;SDS011;7631;52.088;5.088;2022-08-23T09:28:41;2.25;;;1.98;;
15063;SDS011;7631;52.088;5.088;2022-08-23T09:31:08;2.03;;;1.70;;
15063;SDS011;7631;52.088;5.088;2022-08-23T09:38:26;2.22;;;1.60;;
15063;SDS011;7631;52.088;5.088;2022-08-23T09:40:53;2.15;;;1.95;;
15063;SDS011;7631;52.088;5.088;2022-08-23T09:43:20;2.85;;;2.00;;
15063;SDS011;7631;52.088;5.088;2022-08-23T09:48:11;2.47;;;1.90;;
15063;SDS011;7631;52.088;5.088;2022-08-23T09:50:38;2.75;;;1.85;;
15063;SDS011;7631;52.088;5.088;2022-08-23T09:53:11;2.00;;;1.80;;
15063;SDS011;7631;52.088;5.088;2022-08-23T09:58:03;2.10;;;1.90;;
15063;SDS011;7631;52.088;5.088;2022-08-23T10:00:31;2.28;;;1.90;;
15063;SDS011;7631;52.088;5.088;2022-08-23T10:05:41;1.70;;;1.42;;
15063;SDS011;7631;52.088;5.088;2022-08-23T10:08:07;2.38;;;1.67;;
15063;SDS011;7631;52.088;5.088;2022-08-23T10:10:37;2.40;;;1.80;;
15063;SDS011;7631;52.088;5.088;2022-08-23T10:13:07;3.50;;;1.73;;
15063;SDS011;7631;52.088;5.088;2022-08-23T10:15:39;1.65;;;1.52;;
15063;SDS011;7631;52.088;5.088;2022-08-23T10:20:48;2.25;;;1.63;;
15063;SDS011;7631;52.088;5.088;2022-08-23T10:25:46;2.03;;;1.83;;
15063;SDS011;7631;52.088;5.088;2022-08-23T10:28:21;1.85;;;1.52;;
15063;SDS011;7631;52.088;5.088;2022-08-23T10:41:20;2.20;;;1.60;;
15063;SDS011;7631;52.088;5.088;2022-08-23T10:43:57;2.10;;;1.83;;
15063;SDS011;7631;52.088;5.088;2022-08-23T10:46:24;1.80;;;1.60;;
15063;SDS011;7631;52.088;5.088;2022-08-23T10:48:53;2.10;;;1.80;;
15063;SDS011;7631;52.088;5.088;2022-08-23T10:51:40;1.83;;;1.50;;
15063;SDS011;7631;52.088;5.088;2022-08-23T10:54:08;1.65;;;1.55;;
15063;SDS011;7631;52.088;5.088;2022-08-23T10:56:36;2.47;;;1.70;;
15063;SDS011;7631;52.088;5.088;2022-08-23T10:59:13;1.90;;;1.55;;
15063;SDS011;7631;52.088;5.088;2022-08-23T11:04:16;2.03;;;1.70;;
15063;SDS011;7631;52.088;5.088;2022-08-23T11:06:51;1.63;;;1.52;;
15063;SDS011;7631;52.088;5.088;2022-08-23T11:11:49;1.38;;;1.27;;
15063;SDS011;7631;52.088;5.088;2022-08-23T11:14:36;1.83;;;1.30;;
15063;SDS011;7631;52.088;5.088;2022-08-23T11:17:03;1.90;;;1.60;;
15063;SDS011;7631;52.088;5.088;2022-08-23T11:19:47;1.73;;;1.60;;
15063;SDS011;7631;52.088;5.088;2022-08-23T11:22:15;1.88;;;1.50;;
15063;SDS011;7631;52.088;5.088;2022-08-23T11:24:48;1.55;;;1.42;;
15063;SDS011;7631;52.088;5.088;2022-08-23T11:27:24;1.95;;;1.75;;
15063;SDS011;7631;52.088;5.088;2022-08-23T11:29:49;2.08;;;1.52;;
15063;SDS011;7631;52.088;5.088;2022-08-23T11:32:19;1.63;;;1.52;;
15063;SDS011;7631;52.088;5.088;2022-08-23T11:35:00;2.22;;;1.70;;
15063;SDS011;7631;52.088;5.088;2022-08-23T11:37:46;2.60;;;1.70;;
15063;SDS011;7631;52.088;5.088;2022-08-23T11:40:12;1.30;;;1.20;;
15063;SDS011;7631;52.088;5.088;2022-08-23T11:45:19;2.53;;;1.57;;
15063;SDS011;7631;52.088;5.088;2022-08-23T11:47:45;1.83;;;1.65;;
15063;SDS011;7631;52.088;5.088;2022-08-23T11:50:23;1.77;;;1.60;;
15063;SDS011;7631;52.088;5.088;2022-08-23T11:52:53;1.75;;;1.65;;
15063;SDS011;7631;52.088;5.088;2022-08-23T12:03:25;1.65;;;1.55;;
15063;SDS011;7631;52.088;5.088;2022-08-23T12:06:09;1.70;;;1.60;;
15063;SDS011;7631;52.088;5.088;2022-08-23T12:08:45;2.47;;;1.60;;
15063;SDS011;7631;52.088;5.088;2022-08-23T12:11:12;1.60;;;1.45;;
15063;SDS011;7631;52.088;5.088;2022-08-23T12:13:49;1.80;;;1.60;;
15063;SDS011;7631;52.088;5.088;2022-08-23T12:21:20;2.28;;;1.63;;
15063;SDS011;7631;52.088;5.088;2022-08-23T12:23:51;1.80;;;1.48;;
15063;SDS011;7631;52.088;5.088;2022-08-23T12:28:48;1.77;;;1.40;;
15063;SDS011;7631;52.088;5.088;2022-08-23T12:31:25;1.63;;;1.48;;
15063;SDS011;7631;52.088;5.088;2022-08-23T12:36:21;1.50;;;1.40;;
15063;SDS011;7631;52.088;5.088;2022-08-23T12:38:59;1.52;;;1.27;;
15063;SDS011;7631;52.088;5.088;2022-08-23T12:41:30;1.50;;;1.33;;
15063;SDS011;7631;52.088;5.088;2022-08-23T12:44:06;1.60;;;1.40;;
15063;SDS011;7631;52.088;5.088;2022-08-23T12:46:42;1.67;;;1.58;;
15063;SDS011;7631;52.088;5.088;2022-08-23T12:49:09;1.55;;;1.45;;
15063;SDS011;7631;52.088;5.088;2022-08-23T12:51:38;1.70;;;1.60;;
15063;SDS011;7631;52.088;5.088;2022-08-23T12:54:11;1.67;;;1.40;;
15063;SDS011;7631;52.088;5.088;2022-08-23T12:56:36;1.65;;;1.40;;
15063;SDS011;7631;52.088;5.088;2022-08-23T12:59:03;1.60;;;1.50;;
15063;SDS011;7631;52.088;5.088;2022-08-23T13:01:30;2.03;;;1.83;;
15063;SDS011;7631;52.088;5.088;2022-08-23T13:03:58;2.63;;;1.60;;
15063;SDS011;7631;52.088;5.088;2022-08-23T13:06:29;2.63;;;1.73;;
15063;SDS011;7631;52.088;5.088;2022-08-23T13:11:49;3.00;;;1.50;;
15063;SDS011;7631;52.088;5.088;2022-08-23T13:14:49;2.10;;;1.35;;
15063;SDS011;7631;52.088;5.088;2022-08-23T13:19:37;1.42;;;1.33;;
15063;SDS011;7631;52.088;5.088;2022-08-23T13:24:38;1.50;;;1.40;;
15063;SDS011;7631;52.088;5.088;2022-08-23T13:27:11;1.75;;;1.50;;
15063;SDS011;7631;52.088;5.088;2022-08-23T13:32:28;1.88;;;1.67;;
15063;SDS011;7631;52.088;5.088;2022-08-23T13:34:53;1.42;;;1.33;;
15063;SDS011;7631;52.088;5.088;2022-08-23T13:39:50;1.40;;;1.30;;
15063;SDS011;7631;52.088;5.088;2022-08-23T13:44:50;1.70;;;1.60;;
15063;SDS011;7631;52.088;5.088;2022-08-23T13:47:20;2.42;;;1.60;;
15063;SDS011;7631;52.088;5.088;2022-08-23T13:49:46;1.85;;;1.35;;
15063;SDS011;7631;52.088;5.088;2022-08-23T13:52:12;2.17;;;1.45;;
15063;SDS011;7631;52.088;5.088;2022-08-23T13:54:37;1.85;;;1.55;;
15063;SDS011;7631;52.088;5.088;2022-08-23T13:57:05;1.65;;;1.55;;
15063;SDS011;7631;52.088;5.088;2022-08-23T13:59:38;1.80;;;1.50;;
15063;SDS011;7631;52.088;5.088;2022-08-23T14:02:06;1.95;;;1.77;;
15063;SDS011;7631;52.088;5.088;2022-08-23T14:04:32;2.25;;;1.73;;
15063;SDS011;7631;52.088;5.088;2022-08-23T14:06:57;2.15;;;1.80;;
15063;SDS011;7631;52.088;5.088;2022-08-23T14:09:22;1.77;;;1.60;;
15063;SDS011;7631;52.088;5.088;2022-08-23T14:11:49;1.70;;;1.60;;
15063;SDS011;7631;52.088;5.088;2022-08-23T14:14:16;2.67;;;1.85;;
15063;SDS011;7631;52.088;5.088;2022-08-23T14:16:41;1.75;;;1.50;;
15063;SDS011;7631;52.088;5.088;2022-08-23T14:19:09;1.77;;;1.67;;
15063;SDS011;7631;52.088;5.088;2022-08-23T14:21:34;1.80;;;1.70;;
15063;SDS011;7631;52.088;5.088;2022-08-23T14:23:59;2.22;;;1.83;;
15063;SDS011;7631;52.088;5.088;2022-08-23T14:26:24;1.92;;;1.70;;
15063;SDS011;7631;52.088;5.088;2022-08-23T14:28:50;1.70;;;1.60;;
15063;SDS011;7631;52.088;5.088;2022-08-23T14:31:16;2.03;;;1.50;;
15063;SDS011;7631;52.088;5.088;2022-08-23T14:33:41;1.80;;;1.70;;
15063;SDS011;7631;52.088;5.088;2022-08-23T14:36:06;1.80;;;1.60;;
15063;SDS011;7631;52.088;5.088;2022-08-23T14:38:32;2.28;;;1.67;;
15063;SDS011;7631;52.088;5.088;2022-08-23T14:40:58;2.58;;;1.80;;
15063;SDS011;7631;52.088;5.088;2022-08-23T14:43:25;2.38;;;1.88;;
15063;SDS011;7631;52.088;5.088;2022-08-23T14:45:50;1.83;;;1.52;;
15063;SDS011;7631;52.088;5.088;2022-08-23T14:48:15;2.33;;;2.10;;
15063;SDS011;7631;52.088;5.088;2022-08-23T14:50:41;1.83;;;1.73;;
15063;SDS011;7631;52.088;5.088;2022-08-23T14:53:06;1.75;;;1.50;;
15063;SDS011;7631;52.088;5.088;2022-08-23T14:55:32;2.55;;;1.92;;
15063;SDS011;7631;52.088;5.088;2022-08-23T14:57:57;1.92;;;1.80;;
15063;SDS011;7631;52.088;5.088;2022-08-23T15:00:23;2.33;;;1.70;;
15063;SDS011;7631;52.088;5.088;2022-08-23T15:02:49;2.80;;;1.70;;
15063;SDS011;7631;52.088;5.088;2022-08-23T15:05:14;2.00;;;1.80;;
15063;SDS011;7631;52.088;5.088;2022-08-23T15:07:40;1.67;;;1.58;;
15063;SDS011;7631;52.088;5.088;2022-08-23T15:10:05;2.10;;;1.90;;
15063;SDS011;7631;52.088;5.088;2022-08-23T15:12:31;2.28;;;2.00;;
15063;SDS011;7631;52.088;5.088;2022-08-23T15:14:56;1.83;;;1.70;;
15063;SDS011;7631;52.088;5.088;2022-08-23T15:17:21;2.45;;;1.60;;
15063;SDS011;7631;52.088;5.088;2022-08-23T15:19:47;2.63;;;1.73;;
15063;SDS011;7631;52.088;5.088;2022-08-23T15:22:12;1.60;;;1.50;;
15063;SDS011;7631;52.088;5.088;2022-08-23T15:24:37;1.85;;;1.70;;
15063;SDS011;7631;52.088;5.088;2022-08-23T15:27:04;2.17;;;1.85;;
15063;SDS011;7631;52.088;5.088;2022-08-23T15:29:29;1.70;;;1.60;;
15063;SDS011;7631;52.088;5.088;2022-08-23T15:31:55;1.80;;;1.60;;
15063;SDS011;7631;52.088;5.088;2022-08-23T15:34:20;1.83;;;1.50;;
15063;SDS011;7631;52.088;5.088;2022-08-23T15:36:46;2.05;;;1.67;;
15063;SDS011;7631;52.088;5.088;2022-08-23T15:39:11;1.60;;;1.50;;
15063;SDS011;7631;52.088;5.088;2022-08-23T15:41:36;2.25;;;1.85;;
15063;SDS011;7631;52.088;5.088;2022-08-23T15:44:02;1.67;;;1.58;;
15063;SDS011;7631;52.088;5.088;2022-08-23T15:46:27;1.90;;;1.80;;
15063;SDS011;7631;52.088;5.088;2022-08-23T15:48:59;2.20;;;1.70;;
15063;SDS011;7631;52.088;5.088;2022-08-23T15:51:26;2.08;;;1.80;;
15063;SDS011;7631;52.088;5.088;2022-08-23T15:53:52;1.70;;;1.60;;
15063;SDS011;7631;52.088;5.088;2022-08-23T15:56:19;1.70;;;1.60;;
15063;SDS011;7631;52.088;5.088;2022-08-23T15:58:45;1.75;;;1.65;;
15063;SDS011;7631;52.088;5.088;2022-08-23T16:01:10;2.08;;;1.80;;
15063;SDS011;7631;52.088;5.088;2022-08-23T16:03:36;1.98;;;1.70;;
15063;SDS011;7631;52.088;5.088;2022-08-23T16:06:02;1.88;;;1.70;;
15063;SDS011;7631;52.088;5.088;2022-08-23T16:08:29;2.30;;;1.65;;
15063;SDS011;7631;52.088;5.088;2022-08-23T16:10:54;1.75;;;1.63;;
15063;SDS011;7631;52.088;5.088;2022-08-23T16:13:20;2.15;;;1.67;;
15063;SDS011;7631;52.088;5.088;2022-08-23T16:15:46;2.00;;;1.80;;
15063;SDS011;7631;52.088;5.088;2022-08-23T16:18:11;1.65;;;1.50;;
15063;SDS011;7631;52.088;5.088;2022-08-23T16:20:37;1.67;;;1.58;;
15063;SDS011;7631;52.088;5.088;2022-08-23T16:23:02;2.20;;;2.00;;
15063;SDS011;7631;52.088;5.088;2022-08-23T16:25:27;2.00;;;1.70;;
15063;SDS011;7631;52.088;5.088;2022-08-23T16:27:53;1.65;;;1.55;;
15063;SDS011;7631;52.088;5.088;2022-08-23T16:30:18;2.43;;;2.23;;
15063;SDS011;7631;52.088;5.088;2022-08-23T16:32:43;2.10;;;1.90;;
15063;SDS011;7631;52.088;5.088;2022-08-23T16:35:08;2.30;;;1.80;;